sensor_id;sensor_type;location;lat;lon;timestamp;pressure;altitude;pressure_sealevel;temperature;humidity
49813;BME280;35706;52.100;5.056;2023-07-09T00:00:35;101598.16;;;28.19;47.11
49813;BME280;35706;52.100;5.056;2023-07-09T00:01:36;101608.25;;;28.23;47.35
49813;BME280;35706;52.100;5.056;2023-07-09T00:02:37;101596.16;;;28.38;46.47
49813;BME280;35706;52.100;5.056;2023-07-09T00:03:37;101598.28;;;28.24;47.17
49813;BME280;35706;52.100;5.056;2023-07-09T00:04:37;101594.84;;;28.40;46.72
49813;BME280;35706;52.100;5.056;2023-07-09T00:05:38;101599.56;;;28.33;47.17
49813;BME280;35706;52.100;5.056;2023-07-09T00:06:39;101601.22;;;28.46;46.87
49813;BME280;35706;52.100;5.056;2023-07-09T00:07:40;101596.19;;;28.50;47.01
49813;BME280;35706;52.100;5.056;2023-07-09T00:08:43;101599.56;;;28.57;46.26
49813;BME280;35706;52.100;5.056;2023-07-09T00:09:44;101604.63;;;28.41;47.32
49813;BME280;35706;52.100;5.056;2023-07-09T00:10:45;101600.63;;;28.44;46.99
49813;BME280;35706;52.100;5.056;2023-07-09T00:11:46;101597.47;;;28.35;47.51
49813;BME280;35706;52.100;5.056;2023-07-09T00:12:47;101605.69;;;28.29;47.32
49813;BME280;35706;52.100;5.056;2023-07-09T00:13:47;101599.56;;;28.33;47.88
49813;BME280;35706;52.100;5.056;2023-07-09T00:14:48;101606.84;;;28.45;46.84
49813;BME280;35706;52.100;5.056;2023-07-09T00:15:49;101607.19;;;28.48;47.08
49813;BME280;35706;52.100;5.056;2023-07-09T00:16:50;101609.69;;;28.38;47.60
49813;BME280;35706;52.100;5.056;2023-07-09T00:17:50;101604.25;;;28.38;47.20
49813;BME280;35706;52.100;5.056;2023-07-09T00:18:51;101607.44;;;28.47;47.10
49813;BME280;35706;52.100;5.056;2023-07-09T00:19:51;101612.50;;;28.43;47.33
49813;BME280;35706;52.100;5.056;2023-07-09T00:20:52;101609.94;;;28.36;47.70
49813;BME280;35706;52.100;5.056;2023-07-09T00:21:52;101615.34;;;28.36;47.76
49813;BME280;35706;52.100;5.056;2023-07-09T00:22:55;101608.97;;;28.19;48.89
49813;BME280;35706;52.100;5.056;2023-07-09T00:23:55;101621.66;;;28.07;48.71
49813;BME280;35706;52.100;5.056;2023-07-09T00:24:56;101616.63;;;27.98;48.94
49813;BME280;35706;52.100;5.056;2023-07-09T00:25:59;101615.69;;;28.28;47.89
49813;BME280;35706;52.100;5.056;2023-07-09T00:27:07;101613.13;;;28.21;48.65
49813;BME280;35706;52.100;5.056;2023-07-09T00:28:12;101614.25;;;28.26;48.24
49813;BME280;35706;52.100;5.056;2023-07-09T00:29:13;101626.84;;;27.96;49.18
49813;BME280;35706;52.100;5.056;2023-07-09T00:30:16;101613.31;;;28.08;48.73
49813;BME280;35706;52.100;5.056;2023-07-09T00:31:18;101620.84;;;28.06;48.54
49813;BME280;35706;52.100;5.056;2023-07-09T00:32:19;101618.53;;;28.21;48.58
49813;BME280;35706;52.100;5.056;2023-07-09T00:33:24;101621.44;;;27.96;49.77
49813;BME280;35706;52.100;5.056;2023-07-09T00:34:31;101626.84;;;27.96;49.62
49813;BME280;35706;52.100;5.056;2023-07-09T00:35:31;101623.50;;;27.82;50.15
49813;BME280;35706;52.100;5.056;2023-07-09T00:36:32;101622.72;;;27.52;51.30
49813;BME280;35706;52.100;5.056;2023-07-09T00:37:32;101622.69;;;27.40;51.19
49813;BME280;35706;52.100;5.056;2023-07-09T00:38:32;101626.03;;;27.54;50.45
49813;BME280;35706;52.100;5.056;2023-07-09T00:39:38;101626.97;;;27.59;50.79
49813;BME280;35706;52.100;5.056;2023-07-09T00:40:56;101622.63;;;27.58;50.64
49813;BME280;35706;52.100;5.056;2023-07-09T00:41:59;101627.69;;;27.67;50.58
49813;BME280;35706;52.100;5.056;2023-07-09T00:42:59;101627.00;;;27.71;50.56
49813;BME280;35706;52.100;5.056;2023-07-09T00:45:26;101626.13;;;27.89;49.59
49813;BME280;35706;52.100;5.056;2023-07-09T00:48:47;101630.78;;;27.82;50.53
49813;BME280;35706;52.100;5.056;2023-07-09T00:50:01;101632.19;;;27.85;50.70
49813;BME280;35706;52.100;5.056;2023-07-09T00:51:10;101629.28;;;27.86;50.70
49813;BME280;35706;52.100;5.056;2023-07-09T00:52:24;101631.06;;;28.04;50.06
49813;BME280;35706;52.100;5.056;2023-07-09T00:53:29;101631.53;;;28.01;50.34
49813;BME280;35706;52.100;5.056;2023-07-09T00:54:40;101630.94;;;27.87;51.00
49813;BME280;35706;52.100;5.056;2023-07-09T00:55:42;101634.53;;;27.81;51.13
49813;BME280;35706;52.100;5.056;2023-07-09T00:56:46;101630.28;;;27.73;51.65
49813;BME280;35706;52.100;5.056;2023-07-09T00:57:55;101632.66;;;27.81;50.98
49813;BME280;35706;52.100;5.056;2023-07-09T00:59:00;101628.38;;;27.92;50.47
49813;BME280;35706;52.100;5.056;2023-07-09T01:00:12;101627.53;;;28.04;50.18
49813;BME280;35706;52.100;5.056;2023-07-09T01:01:18;101630.13;;;27.98;50.46
49813;BME280;35706;52.100;5.056;2023-07-09T01:02:19;101621.19;;;27.86;50.98
49813;BME280;35706;52.100;5.056;2023-07-09T01:03:42;101625.31;;;28.00;49.83
49813;BME280;35706;52.100;5.056;2023-07-09T01:04:45;101620.84;;;27.94;50.95
49813;BME280;35706;52.100;5.056;2023-07-09T01:05:49;101620.41;;;27.67;51.89
49813;BME280;35706;52.100;5.056;2023-07-09T01:06:54;101621.72;;;27.65;51.73
49813;BME280;35706;52.100;5.056;2023-07-09T01:07:55;101624.84;;;27.61;52.00
49813;BME280;35706;52.100;5.056;2023-07-09T01:08:59;101622.03;;;27.68;51.85
49813;BME280;35706;52.100;5.056;2023-07-09T01:10:01;101631.47;;;27.77;50.61
49813;BME280;35706;52.100;5.056;2023-07-09T01:11:02;101623.28;;;27.84;51.01
49813;BME280;35706;52.100;5.056;2023-07-09T01:12:05;101628.00;;;27.89;50.90
49813;BME280;35706;52.100;5.056;2023-07-09T01:13:07;101628.88;;;27.71;51.74
49813;BME280;35706;52.100;5.056;2023-07-09T01:14:11;101627.25;;;27.81;50.89
49813;BME280;35706;52.100;5.056;2023-07-09T01:15:13;101629.38;;;27.79;51.20
49813;BME280;35706;52.100;5.056;2023-07-09T01:16:15;101626.38;;;27.99;49.94
49813;BME280;35706;52.100;5.056;2023-07-09T01:17:15;101630.94;;;27.87;51.01
49813;BME280;35706;52.100;5.056;2023-07-09T01:18:16;101629.97;;;27.81;51.28
49813;BME280;35706;52.100;5.056;2023-07-09T01:19:21;101628.53;;;27.79;51.22
49813;BME280;35706;52.100;5.056;2023-07-09T01:20:26;101633.25;;;27.84;51.13
49813;BME280;35706;52.100;5.056;2023-07-09T01:21:27;101632.16;;;27.73;51.20
49813;BME280;35706;52.100;5.056;2023-07-09T01:22:27;101636.72;;;27.60;52.18
49813;BME280;35706;52.100;5.056;2023-07-09T01:23:29;101629.88;;;27.46;52.30
49813;BME280;35706;52.100;5.056;2023-07-09T01:25:52;101630.72;;;27.58;51.82
49813;BME280;35706;52.100;5.056;2023-07-09T01:26:54;101632.69;;;27.51;52.34
49813;BME280;35706;52.100;5.056;2023-07-09T01:27:55;101627.38;;;27.45;52.31
49813;BME280;35706;52.100;5.056;2023-07-09T01:28:56;101629.28;;;27.44;52.52
49813;BME280;35706;52.100;5.056;2023-07-09T01:29:57;101626.03;;;27.54;52.15
49813;BME280;35706;52.100;5.056;2023-07-09T01:30:57;101632.09;;;27.49;52.59
49813;BME280;35706;52.100;5.056;2023-07-09T01:31:58;101633.81;;;27.74;51.25
49813;BME280;35706;52.100;5.056;2023-07-09T01:33:00;101629.34;;;27.68;51.62
49813;BME280;35706;52.100;5.056;2023-07-09T01:34:01;101624.63;;;27.63;51.86
49813;BME280;35706;52.100;5.056;2023-07-09T01:35:03;101633.19;;;27.60;51.86
49813;BME280;35706;52.100;5.056;2023-07-09T01:36:14;101632.13;;;27.61;51.69
49813;BME280;35706;52.100;5.056;2023-07-09T01:37:20;101628.53;;;27.67;51.87
49813;BME280;35706;52.100;5.056;2023-07-09T01:38:21;101628.25;;;27.57;52.03
49813;BME280;35706;52.100;5.056;2023-07-09T01:39:22;101631.66;;;27.52;52.56
49813;BME280;35706;52.100;5.056;2023-07-09T01:40:24;101627.97;;;27.47;52.63
49813;BME280;35706;52.100;5.056;2023-07-09T01:41:25;101625.78;;;27.55;52.20
49813;BME280;35706;52.100;5.056;2023-07-09T01:42:26;101631.16;;;27.44;52.50
49813;BME280;35706;52.100;5.056;2023-07-09T01:43:28;101628.03;;;27.58;52.09
49813;BME280;35706;52.100;5.056;2023-07-09T01:44:29;101628.63;;;27.72;51.45
49813;BME280;35706;52.100;5.056;2023-07-09T01:45:29;101632.75;;;27.75;51.26
49813;BME280;35706;52.100;5.056;2023-07-09T01:46:30;101628.78;;;27.77;51.17
49813;BME280;35706;52.100;5.056;2023-07-09T01:47:30;101631.34;;;27.72;52.00
49813;BME280;35706;52.100;5.056;2023-07-09T01:48:30;101631.44;;;27.66;51.54
49813;BME280;35706;52.100;5.056;2023-07-09T01:49:33;101630.72;;;27.58;52.26
49813;BME280;35706;52.100;5.056;2023-07-09T01:50:33;101624.63;;;27.63;51.58
49813;BME280;35706;52.100;5.056;2023-07-09T01:51:34;101626.25;;;27.64;52.07
49813;BME280;35706;52.100;5.056;2023-07-09T01:52:38;101630.31;;;27.43;53.37
49813;BME280;35706;52.100;5.056;2023-07-09T01:53:42;101629.28;;;27.44;53.01
49813;BME280;35706;52.100;5.056;2023-07-09T01:54:44;101628.56;;;27.37;52.94
49813;BME280;35706;52.100;5.056;2023-07-09T01:55:50;101631.66;;;27.52;52.36
49813;BME280;35706;52.100;5.056;2023-07-09T01:56:56;101628.56;;;27.37;53.58
49813;BME280;35706;52.100;5.056;2023-07-09T01:58:01;101630.91;;;27.45;53.25
49813;BME280;35706;52.100;5.056;2023-07-09T01:59:06;101627.75;;;27.48;53.00
49813;BME280;35706;52.100;5.056;2023-07-09T02:00:11;101632.56;;;27.46;53.05
49813;BME280;35706;52.100;5.056;2023-07-09T02:01:13;101634.78;;;27.37;53.32
49813;BME280;35706;52.100;5.056;2023-07-09T02:02:15;101634.63;;;27.32;53.50
49813;BME280;35706;52.100;5.056;2023-07-09T02:03:19;101637.09;;;27.34;53.16
49813;BME280;35706;52.100;5.056;2023-07-09T02:04:19;101632.97;;;27.31;53.59
49813;BME280;35706;52.100;5.056;2023-07-09T02:05:20;101630.50;;;27.30;53.52
49813;BME280;35706;52.100;5.056;2023-07-09T02:06:21;101626.28;;;27.22;53.54
49813;BME280;35706;52.100;5.056;2023-07-09T02:07:25;101633.47;;;27.21;53.73
49813;BME280;35706;52.100;5.056;2023-07-09T02:08:25;101634.13;;;27.24;53.71
49813;BME280;35706;52.100;5.056;2023-07-09T02:09:25;101633.34;;;27.16;53.96
49813;BME280;35706;52.100;5.056;2023-07-09T02:10:26;101630.66;;;27.16;54.00
49813;BME280;35706;52.100;5.056;2023-07-09T02:11:26;101635.84;;;27.18;53.86
49813;BME280;35706;52.100;5.056;2023-07-09T02:12:27;101631.19;;;27.25;53.86
49813;BME280;35706;52.100;5.056;2023-07-09T02:13:27;101637.94;;;27.16;54.01
49813;BME280;35706;52.100;5.056;2023-07-09T02:14:28;101632.53;;;27.16;54.29
49813;BME280;35706;52.100;5.056;2023-07-09T02:15:28;101638.59;;;27.11;54.64
49813;BME280;35706;52.100;5.056;2023-07-09T02:16:30;101637.09;;;27.15;54.36
49813;BME280;35706;52.100;5.056;2023-07-09T02:17:30;101635.00;;;27.17;54.15
49813;BME280;35706;52.100;5.056;2023-07-09T02:18:31;101637.09;;;27.15;54.03
49813;BME280;35706;52.100;5.056;2023-07-09T02:19:31;101638.69;;;27.05;54.42
49813;BME280;35706;52.100;5.056;2023-07-09T02:20:32;101630.97;;;27.08;54.41
49813;BME280;35706;52.100;5.056;2023-07-09T02:21:32;101632.09;;;27.00;55.05
49813;BME280;35706;52.100;5.056;2023-07-09T02:22:33;101638.63;;;26.93;55.13
49813;BME280;35706;52.100;5.056;2023-07-09T02:23:34;101632.66;;;26.91;54.96
49813;BME280;35706;52.100;5.056;2023-07-09T02:24:34;101633.00;;;26.94;55.02
49813;BME280;35706;52.100;5.056;2023-07-09T02:25:35;101632.78;;;26.96;55.09
49813;BME280;35706;52.100;5.056;2023-07-09T02:26:35;101629.66;;;26.99;54.96
49813;BME280;35706;52.100;5.056;2023-07-09T02:27:36;101633.38;;;26.98;55.00
49813;BME280;35706;52.100;5.056;2023-07-09T02:28:37;101632.03;;;26.89;55.22
49813;BME280;35706;52.100;5.056;2023-07-09T02:29:37;101633.75;;;26.83;55.64
49813;BME280;35706;52.100;5.056;2023-07-09T02:30:38;101633.06;;;26.88;55.41
49813;BME280;35706;52.100;5.056;2023-07-09T02:31:39;101635.34;;;26.91;55.41
49813;BME280;35706;52.100;5.056;2023-07-09T02:32:40;101628.66;;;26.93;55.51
49813;BME280;35706;52.100;5.056;2023-07-09T02:33:41;101635.63;;;27.01;54.89
49813;BME280;35706;52.100;5.056;2023-07-09T02:34:42;101632.47;;;27.04;55.42
49813;BME280;35706;52.100;5.056;2023-07-09T02:35:42;101636.22;;;27.03;55.87
49813;BME280;35706;52.100;5.056;2023-07-09T02:36:42;101629.03;;;26.97;56.23
49813;BME280;35706;52.100;5.056;2023-07-09T02:37:43;101634.66;;;26.95;56.79
49813;BME280;35706;52.100;5.056;2023-07-09T02:38:43;101631.88;;;27.02;56.83
49813;BME280;35706;52.100;5.056;2023-07-09T02:39:44;101635.03;;;26.99;56.88
49813;BME280;35706;52.100;5.056;2023-07-09T02:40:44;101636.53;;;26.95;56.13
49813;BME280;35706;52.100;5.056;2023-07-09T02:41:46;101631.97;;;26.95;56.25
49813;BME280;35706;52.100;5.056;2023-07-09T02:42:46;101637.34;;;26.95;57.49
49813;BME280;35706;52.100;5.056;2023-07-09T02:43:46;101636.84;;;27.05;56.82
49813;BME280;35706;52.100;5.056;2023-07-09T02:44:47;101639.06;;;27.08;56.69
49813;BME280;35706;52.100;5.056;2023-07-09T02:45:48;101628.97;;;27.04;56.43
49813;BME280;35706;52.100;5.056;2023-07-09T02:46:48;101635.56;;;27.08;56.63
49813;BME280;35706;52.100;5.056;2023-07-09T02:47:48;101642.78;;;27.07;56.87
49813;BME280;35706;52.100;5.056;2023-07-09T02:48:49;101640.78;;;27.02;56.75
49813;BME280;35706;52.100;5.056;2023-07-09T02:49:49;101645.28;;;27.09;56.78
49813;BME280;35706;52.100;5.056;2023-07-09T02:50:49;101639.28;;;27.07;56.84
49813;BME280;35706;52.100;5.056;2023-07-09T02:51:50;101645.50;;;27.07;57.08
49813;BME280;35706;52.100;5.056;2023-07-09T02:52:50;101639.28;;;27.07;57.11
49813;BME280;35706;52.100;5.056;2023-07-09T02:53:51;101634.84;;;27.12;56.51
49813;BME280;35706;52.100;5.056;2023-07-09T02:54:51;101641.75;;;27.08;57.02
49813;BME280;35706;52.100;5.056;2023-07-09T02:55:51;101633.19;;;27.11;57.36
49813;BME280;35706;52.100;5.056;2023-07-09T02:56:51;101632.25;;;27.06;57.23
49813;BME280;35706;52.100;5.056;2023-07-09T02:57:52;101635.16;;;27.04;57.31
49813;BME280;35706;52.100;5.056;2023-07-09T02:58:52;101633.88;;;27.07;57.22
49813;BME280;35706;52.100;5.056;2023-07-09T02:59:53;101632.16;;;27.12;57.02
49813;BME280;35706;52.100;5.056;2023-07-09T03:00:59;101636.66;;;27.18;56.94
49813;BME280;35706;52.100;5.056;2023-07-09T03:02:00;101632.97;;;27.13;57.55
49813;BME280;35706;52.100;5.056;2023-07-09T03:03:01;101635.31;;;27.09;57.98
49813;BME280;35706;52.100;5.056;2023-07-09T03:04:02;101639.66;;;27.10;57.86
49813;BME280;35706;52.100;5.056;2023-07-09T03:05:03;101633.78;;;27.13;57.70
49813;BME280;35706;52.100;5.056;2023-07-09T03:06:05;101637.56;;;27.12;57.97
49813;BME280;35706;52.100;5.056;2023-07-09T03:07:05;101642.75;;;27.14;57.82
49813;BME280;35706;52.100;5.056;2023-07-09T03:08:09;101634.03;;;27.12;57.80
49813;BME280;35706;52.100;5.056;2023-07-09T03:09:09;101640.69;;;27.09;57.87
49813;BME280;35706;52.100;5.056;2023-07-09T03:10:09;101634.47;;;27.09;57.39
49813;BME280;35706;52.100;5.056;2023-07-09T03:11:11;101634.66;;;27.14;57.07
49813;BME280;35706;52.100;5.056;2023-07-09T03:12:12;101629.91;;;27.09;57.71
49813;BME280;35706;52.100;5.056;2023-07-09T03:13:12;101635.09;;;27.11;57.53
49813;BME280;35706;52.100;5.056;2023-07-09T03:14:12;101632.09;;;27.00;58.07
49813;BME280;35706;52.100;5.056;2023-07-09T03:15:13;101638.94;;;27.03;58.51
49813;BME280;35706;52.100;5.056;2023-07-09T03:16:15;101632.94;;;27.01;58.58
49813;BME280;35706;52.100;5.056;2023-07-09T03:17:15;101626.94;;;26.99;58.36
49813;BME280;35706;52.100;5.056;2023-07-09T03:18:25;101639.84;;;26.97;58.32
49813;BME280;35706;52.100;5.056;2023-07-09T03:19:28;101635.94;;;26.93;57.54
49813;BME280;35706;52.100;5.056;2023-07-09T03:20:28;101632.78;;;26.96;57.05
49813;BME280;35706;52.100;5.056;2023-07-09T03:21:29;101637.94;;;26.97;56.95
49813;BME280;35706;52.100;5.056;2023-07-09T03:22:29;101635.69;;;26.94;57.32
49813;BME280;35706;52.100;5.056;2023-07-09T03:23:29;101642.66;;;27.02;56.04
49813;BME280;35706;52.100;5.056;2023-07-09T03:24:30;101637.28;;;27.02;56.44
49813;BME280;35706;52.100;5.056;2023-07-09T03:25:31;101643.25;;;27.04;55.75
49813;BME280;35706;52.100;5.056;2023-07-09T03:26:31;101636.28;;;26.96;56.60
49813;BME280;35706;52.100;5.056;2023-07-09T03:27:32;101635.38;;;27.02;56.84
49813;BME280;35706;52.100;5.056;2023-07-09T03:28:32;101648.13;;;26.77;57.57
49813;BME280;35706;52.100;5.056;2023-07-09T03:29:33;101638.03;;;26.72;58.29
49813;BME280;35706;52.100;5.056;2023-07-09T03:30:33;101638.50;;;26.69;57.91
49813;BME280;35706;52.100;5.056;2023-07-09T03:31:34;101640.94;;;26.71;57.68
49813;BME280;35706;52.100;5.056;2023-07-09T03:32:35;101632.34;;;26.62;58.38
49813;BME280;35706;52.100;5.056;2023-07-09T03:33:35;101633.41;;;26.61;58.23
49813;BME280;35706;52.100;5.056;2023-07-09T03:34:35;101637.13;;;26.60;57.63
49813;BME280;35706;52.100;5.056;2023-07-09T03:35:36;101631.34;;;26.75;57.31
49813;BME280;35706;52.100;5.056;2023-07-09T03:36:38;101633.47;;;26.73;57.07
49813;BME280;35706;52.100;5.056;2023-07-09T03:37:38;101633.66;;;26.53;57.74
49813;BME280;35706;52.100;5.056;2023-07-09T03:38:39;101641.91;;;26.58;57.57
49813;BME280;35706;52.100;5.056;2023-07-09T03:39:39;101639.66;;;26.55;57.80
49813;BME280;35706;52.100;5.056;2023-07-09T03:40:39;101643.59;;;26.59;57.66
49813;BME280;35706;52.100;5.056;2023-07-09T03:41:40;101645.66;;;26.75;56.21
49813;BME280;35706;52.100;5.056;2023-07-09T03:42:40;101641.19;;;26.69;57.13
49813;BME280;35706;52.100;5.056;2023-07-09T03:43:40;101650.16;;;26.81;55.93
49813;BME280;35706;52.100;5.056;2023-07-09T03:44:41;101645.44;;;26.77;56.96
49813;BME280;35706;52.100;5.056;2023-07-09T03:45:44;101653.41;;;26.72;57.39
49813;BME280;35706;52.100;5.056;2023-07-09T03:46:44;101653.69;;;26.64;57.25
49813;BME280;35706;52.100;5.056;2023-07-09T03:47:45;101651.53;;;26.72;56.88
49813;BME280;35706;52.100;5.056;2023-07-09T03:48:45;101647.84;;;26.85;56.32
49813;BME280;35706;52.100;5.056;2023-07-09T03:49:46;101652.22;;;26.86;56.07
49813;BME280;35706;52.100;5.056;2023-07-09T03:50:47;101649.72;;;26.85;55.96
49813;BME280;35706;52.100;5.056;2023-07-09T03:51:48;101655.25;;;26.90;55.75
49813;BME280;35706;52.100;5.056;2023-07-09T03:52:48;101658.41;;;26.87;56.10
49813;BME280;35706;52.100;5.056;2023-07-09T03:53:49;101648.16;;;26.95;55.72
49813;BME280;35706;52.100;5.056;2023-07-09T03:54:49;101656.16;;;26.84;56.26
49813;BME280;35706;52.100;5.056;2023-07-09T03:55:57;101659.75;;;26.77;56.85
49813;BME280;35706;52.100;5.056;2023-07-09T03:57:00;101648.81;;;26.72;56.80
49813;BME280;35706;52.100;5.056;2023-07-09T03:58:00;101659.75;;;26.59;56.97
49813;BME280;35706;52.100;5.056;2023-07-09T03:59:02;101657.19;;;26.64;57.13
49813;BME280;35706;52.100;5.056;2023-07-09T04:00:07;101652.13;;;26.74;56.47
49813;BME280;35706;52.100;5.056;2023-07-09T04:01:13;101653.59;;;26.70;56.95
49813;BME280;35706;52.100;5.056;2023-07-09T04:02:13;101657.06;;;26.77;55.92
49813;BME280;35706;52.100;5.056;2023-07-09T04:03:21;101654.34;;;26.77;56.10
49813;BME280;35706;52.100;5.056;2023-07-09T04:04:21;101657.00;;;26.84;55.66
49813;BME280;35706;52.100;5.056;2023-07-09T04:05:23;101654.94;;;26.79;56.38
49813;BME280;35706;52.100;5.056;2023-07-09T04:06:24;101656.63;;;26.80;55.72
49813;BME280;35706;52.100;5.056;2023-07-09T04:07:27;101659.91;;;26.83;55.72
49813;BME280;35706;52.100;5.056;2023-07-09T04:08:28;101664.09;;;26.78;55.84
49813;BME280;35706;52.100;5.056;2023-07-09T04:09:29;101667.25;;;26.75;56.52
49813;BME280;35706;52.100;5.056;2023-07-09T04:10:29;101660.81;;;26.76;55.82
49813;BME280;35706;52.100;5.056;2023-07-09T04:11:30;101658.56;;;26.73;56.30
49813;BME280;35706;52.100;5.056;2023-07-09T04:12:30;101660.81;;;26.76;55.98
49813;BME280;35706;52.100;5.056;2023-07-09T04:13:31;101661.28;;;26.73;55.90
49813;BME280;35706;52.100;5.056;2023-07-09T04:14:31;101661.28;;;26.73;56.16
49813;BME280;35706;52.100;5.056;2023-07-09T04:15:32;101666.66;;;26.73;55.85
49813;BME280;35706;52.100;5.056;2023-07-09T04:16:36;101660.44;;;26.73;56.46
49813;BME280;35706;52.100;5.056;2023-07-09T04:17:37;101662.44;;;26.77;55.96
49813;BME280;35706;52.100;5.056;2023-07-09T04:18:37;101661.28;;;26.73;57.02
49813;BME280;35706;52.100;5.056;2023-07-09T04:19:37;101664.41;;;26.70;56.19
49813;BME280;35706;52.100;5.056;2023-07-09T04:20:38;101657.28;;;26.76;55.96
49813;BME280;35706;52.100;5.056;2023-07-09T04:21:38;101661.28;;;26.73;56.05
49813;BME280;35706;52.100;5.056;2023-07-09T04:22:39;101660.59;;;26.78;55.49
49813;BME280;35706;52.100;5.056;2023-07-09T04:23:43;101661.19;;;26.80;56.34
49813;BME280;35706;52.100;5.056;2023-07-09T04:24:44;101665.13;;;26.77;55.96
49813;BME280;35706;52.100;5.056;2023-07-09T04:25:44;101660.06;;;26.69;56.85
49813;BME280;35706;52.100;5.056;2023-07-09T04:26:45;101657.06;;;26.59;57.15
49813;BME280;35706;52.100;5.056;2023-07-09T04:27:46;101656.47;;;26.57;57.50
49813;BME280;35706;52.100;5.056;2023-07-09T04:28:46;101658.69;;;26.60;57.53
49813;BME280;35706;52.100;5.056;2023-07-09T04:29:46;101657.19;;;26.64;57.18
49813;BME280;35706;52.100;5.056;2023-07-09T04:30:49;101664.28;;;26.58;57.84
49813;BME280;35706;52.100;5.056;2023-07-09T04:31:50;101650.59;;;26.60;58.06
49813;BME280;35706;52.100;5.056;2023-07-09T04:32:50;101662.22;;;26.60;57.78
49813;BME280;35706;52.100;5.056;2023-07-09T04:33:51;101658.09;;;26.58;58.14
49813;BME280;35706;52.100;5.056;2023-07-09T04:34:52;101653.13;;;26.55;58.43
49813;BME280;35706;52.100;5.056;2023-07-09T04:35:53;101652.94;;;26.56;58.79
49813;BME280;35706;52.100;5.056;2023-07-09T04:36:54;101646.88;;;26.61;59.00
49813;BME280;35706;52.100;5.056;2023-07-09T04:37:54;101653.31;;;26.60;58.93
49813;BME280;35706;52.100;5.056;2023-07-09T04:38:55;101647.31;;;26.58;59.15
49813;BME280;35706;52.100;5.056;2023-07-09T04:39:55;101650.66;;;26.53;59.02
49813;BME280;35706;52.100;5.056;2023-07-09T04:40:55;101651.81;;;26.64;58.96
49813;BME280;35706;52.100;5.056;2023-07-09T04:41:56;101656.81;;;26.60;58.86
49813;BME280;35706;52.100;5.056;2023-07-09T04:42:56;101651.97;;;26.69;58.87
49813;BME280;35706;52.100;5.056;2023-07-09T04:43:56;101644.84;;;26.56;59.37
49813;BME280;35706;52.100;5.056;2023-07-09T04:44:57;101651.00;;;26.64;59.09
49813;BME280;35706;52.100;5.056;2023-07-09T04:45:57;101643.94;;;26.63;59.23
49813;BME280;35706;52.100;5.056;2023-07-09T04:46:57;101651.00;;;26.64;59.26
49813;BME280;35706;52.100;5.056;2023-07-09T04:47:58;101647.69;;;26.62;59.49
49813;BME280;35706;52.100;5.056;2023-07-09T04:48:58;101648.97;;;26.59;59.45
49813;BME280;35706;52.100;5.056;2023-07-09T04:50:00;101642.22;;;26.68;59.24
49813;BME280;35706;52.100;5.056;2023-07-09T04:51:00;101647.41;;;26.70;59.72
49813;BME280;35706;52.100;5.056;2023-07-09T04:52:01;101652.34;;;26.73;60.09
49813;BME280;35706;52.100;5.056;2023-07-09T04:53:01;101644.63;;;26.76;59.89
49813;BME280;35706;52.100;5.056;2023-07-09T04:54:02;101647.63;;;26.68;59.86
49813;BME280;35706;52.100;5.056;2023-07-09T04:55:04;101650.31;;;26.68;59.89
49813;BME280;35706;52.100;5.056;2023-07-09T04:56:05;101655.19;;;26.59;60.25
49813;BME280;35706;52.100;5.056;2023-07-09T04:57:06;101648.50;;;26.62;60.07
49813;BME280;35706;52.100;5.056;2023-07-09T04:58:06;101644.84;;;26.56;60.75
49813;BME280;35706;52.100;5.056;2023-07-09T04:59:07;101644.78;;;26.63;60.33
49813;BME280;35706;52.100;5.056;2023-07-09T05:00:07;101645.53;;;26.70;59.43
49813;BME280;35706;52.100;5.056;2023-07-09T05:01:09;101650.47;;;26.73;59.00
49813;BME280;35706;52.100;5.056;2023-07-09T05:02:11;101650.41;;;26.80;58.48
49813;BME280;35706;52.100;5.056;2023-07-09T05:03:11;101649.13;;;26.64;59.21
49813;BME280;35706;52.100;5.056;2023-07-09T05:04:12;101644.41;;;26.59;59.82
49813;BME280;35706;52.100;5.056;2023-07-09T05:05:12;101652.19;;;26.68;59.16
49813;BME280;35706;52.100;5.056;2023-07-09T05:06:13;101649.41;;;26.74;59.15
49813;BME280;35706;52.100;5.056;2023-07-09T05:07:13;101643.34;;;26.79;58.98
49813;BME280;35706;52.100;5.056;2023-07-09T05:08:14;101643.34;;;26.79;58.49
49813;BME280;35706;52.100;5.056;2023-07-09T05:09:15;101638.78;;;26.79;59.11
49813;BME280;35706;52.100;5.056;2023-07-09T05:10:15;101644.84;;;26.75;59.94
49813;BME280;35706;52.100;5.056;2023-07-09T05:11:15;101644.72;;;26.70;60.25
49813;BME280;35706;52.100;5.056;2023-07-09T05:12:16;101641.84;;;26.65;60.70
49813;BME280;35706;52.100;5.056;2023-07-09T05:13:16;101642.22;;;26.68;60.39
49813;BME280;35706;52.100;5.056;2023-07-09T05:14:18;101642.16;;;26.75;60.14
49813;BME280;35706;52.100;5.056;2023-07-09T05:15:19;101648.97;;;26.77;60.06
49813;BME280;35706;52.100;5.056;2023-07-09T05:16:20;101646.44;;;26.83;59.94
49813;BME280;35706;52.100;5.056;2023-07-09T05:17:20;101642.75;;;26.77;59.31
49813;BME280;35706;52.100;5.056;2023-07-09T05:18:22;101646.44;;;26.83;59.26
49813;BME280;35706;52.100;5.056;2023-07-09T05:19:22;101649.25;;;26.88;59.04
49813;BME280;35706;52.100;5.056;2023-07-09T05:20:23;101649.72;;;26.85;59.43
49813;BME280;35706;52.100;5.056;2023-07-09T05:21:25;101649.94;;;26.83;59.61
49813;BME280;35706;52.100;5.056;2023-07-09T05:22:25;101651.22;;;26.80;59.81
49813;BME280;35706;52.100;5.056;2023-07-09T05:23:25;101641.63;;;26.66;60.29
49813;BME280;35706;52.100;5.056;2023-07-09T05:24:26;101654.59;;;26.76;58.54
49813;BME280;35706;52.100;5.056;2023-07-09T05:25:26;101643.34;;;26.60;58.67
49813;BME280;35706;52.100;5.056;2023-07-09T05:26:27;101645.97;;;26.67;58.40
49813;BME280;35706;52.100;5.056;2023-07-09T05:27:27;101646.53;;;26.51;59.59